Time,TemperatureF,DewpointF,PressureIn,WindDirection,WindDirectionDegrees,WindSpeedMPH,WindSpeedGustMPH,Humidity,HourlyPrecipIn,Conditions,Clouds,dailyrainin,SoftwareType,DateUTC
2013-11-01 00:00:00,59.5,58.4,29.78,NNW,338,0.0,0.0,96,0.03,,,0.00,VWS V14.01,2013-11-01 04:00:00,
2013-11-01 00:01:00,59.6,58.5,29.78,NNW,338,0.0,0.0,96,0.03,,,0.00,VWS V14.01,2013-11-01 04:01:00,
2013-11-01 00:02:00,59.6,58.5,29.78,NNW,338,0.0,0.0,96,0.03,,,0.00,VWS V14.01,2013-11-01 04:02:00,
2013-11-01 00:03:00,59.5,58.4,29.82,NNW,338,0.0,0.0,96,0.05,,,0.18,VWS V14.01,2013-11-01 04:03:00,
2013-11-01 00:04:00,59.5,58.4,29.82,NNW,338,0.0,0.0,96,0.00,,,0.18,VWS V14.01,2013-11-01 04:04:00,
2013-11-01 00:05:00,59.6,58.5,29.78,NNW,338,0.0,0.0,96,0.03,,,0.00,VWS V14.01,2013-11-01 04:05:00,
2013-11-01 00:06:00,59.4,58.3,29.82,NNW,338,0.0,0.0,96,0.00,,,0.18,VWS V14.01,2013-11-01 04:06:00,
2013-11-01 00:07:00,59.6,58.5,29.78,NNW,338,0.0,0.0,96,0.03,,,0.00,VWS V14.01,2013-11-01 04:07:00,
2013-11-01 00:08:00,59.6,58.5,29.78,NNW,338,0.0,0.0,96,0.03,,,0.00,VWS V14.01,2013-11-01 04:08:00,
2013-11-01 00:09:00,59.7,58.6,29.78,NNW,338,0.0,0.0,96,0.03,,,0.00,VWS V14.01,2013-11-01 04:09:00,
2013-11-01 00:11:00,59.5,58.5,29.81,NNW,338,0.0,0.0,96,0.01,,,0.19,VWS V14.01,2013-11-01 04:11:00,
2013-11-01 00:12:00,59.7,58.6,29.78,NNW,338,0.0,0.0,96,0.03,,,0.00,VWS V14.01,2013-11-01 04:12:00,
2013-11-01 00:13:00,59.7,58.6,29.78,NNW,338,0.0,0.0,96,0.03,,,0.00,VWS V14.01,2013-11-01 04:13:00,
2013-11-01 00:14:00,59.7,58.6,29.78,NNW,338,0.0,0.0,96,0.03,,,0.00,VWS V14.01,2013-11-01 04:14:00,
2013-11-01 00:15:00,59.7,58.6,29.77,NNW,338,0.0,0.0,96,0.03,,,0.00,VWS V14.01,2013-11-01 04:15:00,
2013-11-01 00:16:00,59.5,58.4,29.80,NNW,338,0.0,0.0,96,0.01,,,0.19,VWS V14.01,2013-11-01 04:16:00,
2013-11-01 00:17:00,59.7,58.7,29.77,NNW,338,0.0,0.0,96,0.03,,,0.00,VWS V14.01,2013-11-01 04:17:00,
2013-11-01 00:18:00,59.7,58.7,29.77,NNW,338,0.0,0.0,96,0.03,,,0.00,VWS V14.01,2013-11-01 04:18:00,
2013-11-01 00:19:00,59.8,58.8,29.77,NNW,338,0.0,0.0,96,0.03,,,0.00,VWS V14.01,2013-11-01 04:19:00,
2013-11-01 00:20:00,59.7,58.7,29.77,NNW,338,0.0,0.0,96,0.03,,,0.00,VWS V14.01,2013-11-01 04:20:00,
2013-11-01 00:21:00,59.4,58.3,29.80,NNW,338,0.0,0.0,96,0.01,,,0.19,VWS V14.01,2013-11-01 04:21:00,
2013-11-01 00:22:00,59.7,58.7,29.77,NNW,338,0.0,0.0,96,0.03,,,0.00,VWS V14.01,2013-11-01 04:22:00,
2013-11-01 00:23:00,59.8,58.8,29.77,NNW,338,0.0,0.0,96,0.03,,,0.00,VWS V14.01,2013-11-01 04:23:00,
2013-11-01 00:24:00,59.8,58.8,29.77,NNW,338,0.0,0.0,96,0.03,,,0.00,VWS V14.01,2013-11-01 04:24:00,
2013-11-01 00:25:00,59.7,58.7,29.76,NNW,338,0.0,0.0,96,0.03,,,0.00,VWS V14.01,2013-11-01 04:25:00,
2013-11-01 00:26:00,59.5,58.4,29.80,NNW,338,0.0,0.0,96,0.02,,,0.20,VWS V14.01,2013-11-01 04:26:00,
2013-11-01 00:27:00,59.8,58.8,29.77,NNW,338,0.0,0.0,96,0.03,,,0.00,VWS V14.01,2013-11-01 04:27:00,
2013-11-01 00:28:00,59.8,58.8,29.77,NNW,338,0.0,0.0,96,0.03,,,0.00,VWS V14.01,2013-11-01 04:28:00,
2013-11-01 00:29:00,59.8,58.8,29.76,NNW,338,0.0,0.0,96,0.03,,,0.00,VWS V14.01,2013-11-01 04:29:00,
2013-11-01 00:30:00,59.8,58.8,29.76,NNW,338,0.0,0.0,96,0.03,,,0.00,VWS V14.01,2013-11-01 04:30:00,
2013-11-01 00:31:00,59.5,58.4,29.80,NNW,338,0.0,0.0,96,0.02,,,0.20,VWS V14.01,2013-11-01 04:31:00,
2013-11-01 00:32:00,59.8,58.8,29.76,NNW,338,0.0,0.0,97,0.03,,,0.00,VWS V14.01,2013-11-01 04:32:00,
2013-11-01 00:33:00,59.9,59.0,29.76,NNW,338,0.0,0.0,97,0.03,,,0.00,VWS V14.01,2013-11-01 04:33:00,
2013-11-01 00:34:00,59.9,59.0,29.76,NNW,338,0.0,0.0,97,0.03,,,0.00,VWS V14.01,2013-11-01 04:34:00,
2013-11-01 00:35:00,60.0,59.1,29.76,NNW,338,0.0,0.0,97,0.03,,,0.00,VWS V14.01,2013-11-01 04:35:00,
2013-11-01 00:36:00,59.5,58.4,29.79,NNW,338,0.0,0.0,96,0.02,,,0.20,VWS V14.01,2013-11-01 04:36:00,
2013-11-01 00:37:00,60.0,59.1,29.76,NNW,338,0.0,0.0,97,0.03,,,0.00,VWS V14.01,2013-11-01 04:37:00,
2013-11-01 00:38:00,60.0,59.1,29.76,NNW,338,0.0,0.0,97,0.03,,,0.00,VWS V14.01,2013-11-01 04:38:00,
2013-11-01 00:39:00,60.0,59.1,29.76,NNW,338,0.0,0.0,97,0.03,,,0.00,VWS V14.01,2013-11-01 04:39:00,
2013-11-01 00:40:00,60.1,59.2,29.76,NNW,338,0.0,0.0,97,0.03,,,0.00,VWS V14.01,2013-11-01 04:40:00,
2013-11-01 00:41:00,59.5,58.4,29.79,NNW,338,0.0,0.0,96,0.02,,,0.20,VWS V14.01,2013-11-01 04:41:00,
2013-11-01 00:42:00,60.1,59.2,29.76,NNW,338,0.0,0.0,97,0.03,,,0.00,VWS V14.01,2013-11-01 04:42:00,
2013-11-01 00:43:00,60.1,59.2,29.76,NNW,338,0.0,0.0,97,0.03,,,0.00,VWS V14.01,2013-11-01 04:43:00,
2013-11-01 00:44:00,60.2,59.3,29.76,NNW,338,0.0,0.0,97,0.03,,,0.00,VWS V14.01,2013-11-01 04:44:00,
2013-11-01 00:45:00,60.2,59.4,29.75,NNW,338,0.0,0.0,97,0.03,,,0.00,VWS V14.01,2013-11-01 04:45:00,
2013-11-01 00:46:00,59.5,58.3,29.79,NNW,338,0.0,0.0,96,0.02,,,0.20,VWS V14.01,2013-11-01 04:46:00,
2013-11-01 00:47:00,60.3,59.5,29.75,NNW,338,0.0,0.0,97,0.03,,,0.00,VWS V14.01,2013-11-01 04:47:00,
2013-11-01 00:48:00,60.4,59.7,29.76,NNW,338,0.0,0.0,98,0.03,,,0.00,VWS V14.01,2013-11-01 04:48:00,
2013-11-01 00:49:00,60.4,59.7,29.75,NNW,338,0.0,0.0,98,0.03,,,0.00,VWS V14.01,2013-11-01 04:49:00,
2013-11-01 00:50:00,60.5,59.8,29.75,NNW,338,0.0,0.0,98,0.03,,,0.00,VWS V14.01,2013-11-01 04:50:00,
2013-11-01 00:51:00,60.5,59.8,29.75,NNW,338,0.0,0.0,98,0.03,,,0.00,VWS V14.01,2013-11-01 04:51:00,
2013-11-01 00:52:00,59.5,58.4,29.79,NNW,338,0.0,0.0,96,0.03,,,0.21,VWS V14.01,2013-11-01 04:52:00,
2013-11-01 00:53:00,60.6,59.9,29.75,NNW,338,0.0,0.0,98,0.03,,,0.00,VWS V14.01,2013-11-01 04:53:00,
2013-11-01 00:54:00,60.6,59.9,29.75,NNW,338,0.0,0.0,98,0.03,,,0.00,VWS V14.01,2013-11-01 04:54:00,
2013-11-01 00:55:00,60.7,60.0,29.75,NNW,338,0.0,0.0,98,0.03,,,0.00,VWS V14.01,2013-11-01 04:55:00,
2013-11-01 00:56:00,60.7,60.0,29.75,NNW,338,0.0,0.0,98,0.03,,,0.00,VWS V14.01,2013-11-01 04:56:00,
2013-11-01 00:57:00,60.8,60.1,29.75,NNW,338,0.0,0.0,98,0.03,,,0.00,VWS V14.01,2013-11-01 04:57:00,
2013-11-01 00:58:00,60.8,60.1,29.75,NNW,338,0.0,0.0,98,0.03,,,0.00,VWS V14.01,2013-11-01 04:58:00,
2013-11-01 00:59:00,60.8,60.1,29.74,NNW,338,0.0,0.0,98,0.03,,,0.00,VWS V14.01,2013-11-01 04:59:00,
2013-11-01 01:00:00,60.8,60.1,29.75,NNW,338,0.0,0.0,98,0.03,,,0.00,VWS V14.01,2013-11-01 05:00:00,
2013-11-01 01:01:00,60.9,60.2,29.75,NNW,338,0.0,0.0,98,0.03,,,0.00,VWS V14.01,2013-11-01 05:01:00,
2013-11-01 01:02:00,60.9,60.2,29.75,NNW,338,0.0,0.0,98,0.03,,,0.00,VWS V14.01,2013-11-01 05:02:00,
2013-11-01 01:03:00,61.0,60.3,29.75,NNW,338,0.0,0.0,98,0.03,,,0.00,VWS V14.01,2013-11-01 05:03:00,
2013-11-01 01:04:00,61.1,60.5,29.74,NNW,338,0.0,0.0,98,0.03,,,0.00,VWS V14.01,2013-11-01 05:04:00,
2013-11-01 01:05:00,61.1,60.5,29.74,NNW,338,0.0,0.0,98,0.03,,,0.00,VWS V14.01,2013-11-01 05:05:00,
2013-11-01 01:06:00,61.2,60.7,29.74,NNW,338,0.0,0.0,98,0.03,,,0.00,VWS V14.01,2013-11-01 05:06:00,
2013-11-01 01:07:00,61.2,60.7,29.74,NNW,338,0.0,0.0,98,0.03,,,0.00,VWS V14.01,2013-11-01 05:07:00,
2013-11-01 01:08:00,61.3,60.8,29.74,NNW,338,0.0,0.0,98,0.03,,,0.00,VWS V14.01,2013-11-01 05:08:00,
2013-11-01 01:09:00,61.4,60.9,29.74,NNW,338,0.0,0.0,98,0.03,,,0.00,VWS V14.01,2013-11-01 05:09:00,
2013-11-01 01:10:00,61.4,60.9,29.74,NNW,338,0.0,0.0,98,0.03,,,0.00,VWS V14.01,2013-11-01 05:10:00,
2013-11-01 01:11:00,61.4,60.8,29.74,NNW,338,0.0,0.0,98,0.03,,,0.00,VWS V14.01,2013-11-01 05:11:00,
2013-11-01 01:12:00,61.5,60.9,29.74,NNW,338,0.0,0.0,98,0.03,,,0.00,VWS V14.01,2013-11-01 05:12:00,
2013-11-01 01:13:00,61.5,60.9,29.74,NNW,338,0.0,0.0,98,0.03,,,0.00,VWS V14.01,2013-11-01 05:13:00,
2013-11-01 01:14:00,61.5,60.9,29.74,NNW,338,0.0,0.0,98,0.03,,,0.00,VWS V14.01,2013-11-01 05:14:00,
2013-11-01 01:15:00,61.5,60.9,29.74,NNW,338,0.0,0.0,98,0.03,,,0.00,VWS V14.01,2013-11-01 05:15:00,
2013-11-01 01:16:00,61.5,60.9,29.74,NNW,338,0.0,0.0,98,0.03,,,0.00,VWS V14.01,2013-11-01 05:16:00,
2013-11-01 01:17:00,61.6,61.0,29.74,NNW,338,0.0,0.0,98,0.03,,,0.00,VWS V14.01,2013-11-01 05:17:00,
2013-11-01 01:18:00,61.7,61.1,29.74,NNW,338,0.0,0.0,98,0.03,,,0.00,VWS V14.01,2013-11-01 05:18:00,
2013-11-01 01:19:00,61.7,61.1,29.74,NNW,338,0.0,0.0,98,0.03,,,0.00,VWS V14.01,2013-11-01 05:19:00,
2013-11-01 01:20:00,61.7,61.1,29.74,NNW,338,0.0,0.0,98,0.03,,,0.00,VWS V14.01,2013-11-01 05:20:00,
2013-11-01 01:21:00,61.8,61.2,29.74,NNW,338,0.0,0.0,98,0.03,,,0.00,VWS V14.01,2013-11-01 05:21:00,
2013-11-01 01:22:00,61.7,61.1,29.74,NNW,338,0.0,0.0,98,0.03,,,0.00,VWS V14.01,2013-11-01 05:22:00,
2013-11-01 01:23:00,61.8,61.2,29.74,NNW,338,0.0,0.0,98,0.03,,,0.00,VWS V14.01,2013-11-01 05:23:00,
2013-11-01 01:24:00,61.8,61.2,29.74,NNW,338,0.0,0.0,98,0.03,,,0.00,VWS V14.01,2013-11-01 05:24:00,
2013-11-01 01:25:00,61.9,61.3,29.73,NNW,338,0.0,0.0,98,0.03,,,0.00,VWS V14.01,2013-11-01 05:25:00,
2013-11-01 01:26:00,61.9,61.3,29.73,NNW,338,0.0,0.0,98,0.03,,,0.00,VWS V14.01,2013-11-01 05:26:00,
2013-11-01 01:27:00,61.9,61.3,29.74,NNW,338,0.0,0.0,98,0.03,,,0.00,VWS V14.01,2013-11-01 05:27:00,
2013-11-01 01:28:00,62.0,61.3,29.73,NNW,338,0.0,0.0,98,0.03,,,0.00,VWS V14.01,2013-11-01 05:28:00,
2013-11-01 01:29:00,62.0,61.3,29.73,NNW,338,0.0,0.0,98,0.03,,,0.00,VWS V14.01,2013-11-01 05:29:00,
2013-11-01 01:30:00,62.0,61.3,29.73,NNW,338,0.0,0.0,98,0.03,,,0.00,VWS V14.01,2013-11-01 05:30:00,
2013-11-01 01:31:00,62.0,61.3,29.73,NNW,338,0.0,0.0,98,0.03,,,0.00,VWS V14.01,2013-11-01 05:31:00,
2013-11-01 01:32:00,62.0,61.3,29.73,NNW,338,0.0,0.0,98,0.03,,,0.00,VWS V14.01,2013-11-01 05:32:00,
2013-11-01 01:34:00,62.1,61.4,29.73,NNW,338,0.0,0.0,98,0.03,,,0.00,VWS V14.01,2013-11-01 05:34:00,
2013-11-01 01:35:00,62.2,61.5,29.73,NNW,338,0.0,0.0,98,0.03,,,0.00,VWS V14.01,2013-11-01 05:35:00,
2013-11-01 01:36:00,62.1,61.4,29.72,NNW,338,0.0,0.0,98,0.03,,,0.00,VWS V14.01,2013-11-01 05:36:00,
2013-11-01 01:37:00,62.1,61.4,29.72,NNW,338,0.0,0.0,98,0.03,,,0.00,VWS V14.01,2013-11-01 05:37:00,
2013-11-01 01:38:00,62.1,61.4,29.72,NNW,338,0.0,0.0,98,0.03,,,0.00,VWS V14.01,2013-11-01 05:38:00,
2013-11-01 01:39:00,62.2,61.5,29.72,NNW,338,0.0,0.0,98,0.03,,,0.00,VWS V14.01,2013-11-01 05:39:00,
2013-11-01 01:40:00,62.2,61.5,29.72,NNW,338,0.0,0.0,98,0.03,,,0.00,VWS V14.01,2013-11-01 05:40:00,
2013-11-01 01:41:00,62.2,61.5,29.72,NNW,338,0.0,0.0,97,0.03,,,0.00,VWS V14.01,2013-11-01 05:41:00,
2013-11-01 01:42:00,62.2,61.5,29.72,NNW,338,0.0,0.0,97,0.03,,,0.00,VWS V14.01,2013-11-01 05:42:00,
2013-11-01 01:43:00,62.2,61.5,29.72,NNW,338,0.0,0.0,97,0.03,,,0.00,VWS V14.01,2013-11-01 05:43:00,
2013-11-01 01:44:00,62.3,61.5,29.72,NNW,338,0.0,0.0,97,0.03,,,0.00,VWS V14.01,2013-11-01 05:44:00,
2013-11-01 01:45:00,62.3,61.5,29.72,NNW,338,0.0,0.0,97,0.03,,,0.00,VWS V14.01,2013-11-01 05:45:00,
2013-11-01 01:46:00,62.3,61.5,29.72,NNW,338,0.0,0.0,97,0.03,,,0.00,VWS V14.01,2013-11-01 05:46:00,
2013-11-01 01:48:00,62.4,61.6,29.72,NNW,338,0.0,0.0,97,0.03,,,0.00,VWS V14.01,2013-11-01 05:48:00,
2013-11-01 01:49:00,62.4,61.6,29.72,NNW,338,0.0,0.0,97,0.03,,,0.00,VWS V14.01,2013-11-01 05:49:00,
2013-11-01 01:51:00,62.5,61.7,29.72,NNW,338,0.0,0.0,97,0.03,,,0.00,VWS V14.01,2013-11-01 05:51:00,
2013-11-01 01:56:00,62.6,61.7,29.72,NNW,338,0.0,0.0,97,0.03,,,0.00,VWS V14.01,2013-11-01 05:56:00,
2013-11-01 02:00:00,62.6,61.7,29.72,NNW,338,0.0,0.0,97,0.03,,,0.00,VWS V14.01,2013-11-01 06:00:00,
2013-11-01 02:02:00,62.7,61.8,29.72,NNW,338,0.0,0.0,97,0.03,,,0.00,VWS V14.01,2013-11-01 06:02:00,
2013-11-01 02:03:00,62.7,61.8,29.72,NNW,338,0.0,0.0,97,0.03,,,0.00,VWS V14.01,2013-11-01 06:03:00,
2013-11-01 02:04:00,62.7,61.8,29.72,NNW,338,0.0,0.0,97,0.03,,,0.00,VWS V14.01,2013-11-01 06:04:00,
2013-11-01 02:05:00,62.8,61.8,29.72,NNW,338,0.0,0.0,97,0.03,,,0.00,VWS V14.01,2013-11-01 06:05:00,
2013-11-01 02:10:00,62.8,61.8,29.71,NNW,338,0.0,0.0,97,0.03,,,0.00,VWS V14.01,2013-11-01 06:10:00,
2013-11-01 02:11:00,62.8,61.8,29.71,NNW,338,0.0,0.0,97,0.03,,,0.00,VWS V14.01,2013-11-01 06:11:00,
2013-11-01 02:12:00,62.8,61.8,29.71,NNW,338,0.0,0.0,96,0.03,,,0.00,VWS V14.01,2013-11-01 06:12:00,
2013-11-01 02:15:00,62.8,61.8,29.71,NNW,338,0.0,0.0,96,0.03,,,0.00,VWS V14.01,2013-11-01 06:15:00,
2013-11-01 02:16:00,62.9,61.9,29.71,NNW,338,0.0,0.0,96,0.03,,,0.00,VWS V14.01,2013-11-01 06:16:00,
2013-11-01 02:17:00,62.9,61.9,29.71,NNW,338,0.0,0.0,96,0.03,,,0.00,VWS V14.01,2013-11-01 06:17:00,
2013-11-01 02:18:00,62.9,61.8,29.70,NNW,338,0.0,0.0,96,0.03,,,0.00,VWS V14.01,2013-11-01 06:18:00,
2013-11-01 02:19:00,62.8,61.7,29.71,NNW,338,0.0,0.0,96,0.03,,,0.00,VWS V14.01,2013-11-01 06:19:00,
2013-11-01 02:20:00,62.8,61.7,29.70,NNW,338,0.0,0.0,96,0.03,,,0.00,VWS V14.01,2013-11-01 06:20:00,
2013-11-01 02:22:00,62.9,61.8,29.71,NNW,338,0.0,0.0,96,0.03,,,0.00,VWS V14.01,2013-11-01 06:22:00,
2013-11-01 02:24:00,63.0,61.9,29.70,NNW,338,0.0,0.0,96,0.03,,,0.00,VWS V14.01,2013-11-01 06:24:00,
2013-11-01 02:26:00,62.9,61.8,29.70,NNW,338,0.0,0.0,96,0.03,,,0.00,VWS V14.01,2013-11-01 06:26:00,
2013-11-01 02:27:00,63.0,61.8,29.70,NNW,338,0.0,0.0,96,0.03,,,0.00,VWS V14.01,2013-11-01 06:27:00,
2013-11-01 02:29:00,62.1,61.4,29.73,NNW,338,0.0,0.0,98,0.03,,,0.00,VWS V14.01,2013-11-01 06:29:00,
2013-11-01 02:43:00,62.3,61.5,29.72,NNW,338,0.0,0.0,97,0.03,,,0.00,VWS V14.01,2013-11-01 06:43:00,
2013-11-01 02:49:00,62.5,61.6,29.72,NNW,338,0.0,0.0,97,0.03,,,0.00,VWS V14.01,2013-11-01 06:49:00,
2013-11-01 02:54:00,62.6,61.7,29.72,NNW,338,0.0,0.0,97,0.03,,,0.00,VWS V14.01,2013-11-01 06:54:00,
2013-11-01 03:03:00,62.7,61.8,29.71,NNW,338,0.0,0.0,97,0.03,,,0.00,VWS V14.01,2013-11-01 07:03:00,
2013-11-01 03:10:00,62.8,61.8,29.71,NNW,338,0.0,0.0,96,0.03,,,0.00,VWS V14.01,2013-11-01 07:10:00,
2013-11-01 03:17:00,62.9,61.8,29.71,NNW,338,0.0,0.0,96,0.03,,,0.00,VWS V14.01,2013-11-01 07:17:00,
2013-11-01 03:24:00,63.0,61.8,29.70,NNW,338,0.0,0.0,96,0.03,,,0.00,VWS V14.01,2013-11-01 07:24:00,
2013-11-01 03:29:00,63.0,61.8,29.70,NNW,338,0.0,0.0,96,0.03,,,0.00,VWS V14.01,2013-11-01 07:29:00,
2013-11-01 03:34:00,63.1,61.9,29.70,NNW,338,0.0,0.0,96,0.03,,,0.00,VWS V14.01,2013-11-01 07:34:00,
2013-11-01 03:39:00,63.1,61.8,29.69,NNW,338,0.0,0.0,96,0.03,,,0.00,VWS V14.01,2013-11-01 07:39:00,
2013-11-01 03:44:00,63.1,61.8,29.69,NNW,338,0.0,0.0,96,0.03,,,0.00,VWS V14.01,2013-11-01 07:44:00,
2013-11-01 03:49:00,63.2,61.8,29.69,NNW,338,0.0,0.0,95,0.03,,,0.00,VWS V14.01,2013-11-01 07:49:00,
2013-11-01 03:54:00,63.2,61.8,29.69,North,359,0.0,2.2,95,0.03,,,0.00,VWS V14.01,2013-11-01 07:54:00,
2013-11-01 03:59:00,63.2,61.8,29.68,North,359,0.0,2.2,95,0.03,,,0.00,VWS V14.01,2013-11-01 07:59:00,
2013-11-01 04:04:00,63.2,61.8,29.68,North,359,0.0,3.2,95,0.03,,,0.00,VWS V14.01,2013-11-01 08:04:00,
2013-11-01 04:09:00,63.3,61.8,29.66,North,359,0.0,3.2,95,0.03,,,0.00,VWS V14.01,2013-11-01 08:09:00,
2013-11-01 04:14:00,63.3,61.8,29.66,North,359,0.0,3.2,95,0.03,,,0.00,VWS V14.01,2013-11-01 08:14:00,
2013-11-01 04:19:00,63.4,61.9,29.67,North,359,0.0,3.2,95,0.03,,,0.00,VWS V14.01,2013-11-01 08:19:00,
2013-11-01 04:24:00,63.4,61.9,29.67,North,359,0.0,3.2,95,0.03,,,0.00,VWS V14.01,2013-11-01 08:24:00,
2013-11-01 04:29:00,63.5,62.0,29.66,North,359,0.0,3.2,95,0.03,,,0.00,VWS V14.01,2013-11-01 08:29:00,
2013-11-01 04:34:00,63.6,62.1,29.65,North,359,0.0,3.2,95,0.03,,,0.00,VWS V14.01,2013-11-01 08:34:00,
2013-11-01 04:39:00,63.7,62.2,29.66,North,359,0.0,3.2,95,0.03,,,0.00,VWS V14.01,2013-11-01 08:39:00,
2013-11-01 04:44:00,63.7,62.1,29.66,North,359,0.0,3.2,95,0.03,,,0.00,VWS V14.01,2013-11-01 08:44:00,
2013-11-01 04:49:00,63.8,62.2,29.64,North,359,0.0,3.2,94,0.03,,,0.00,VWS V14.01,2013-11-01 08:49:00,
2013-11-01 04:54:00,63.8,62.2,29.64,North,359,0.0,3.2,94,0.03,,,0.00,VWS V14.01,2013-11-01 08:54:00,
2013-11-01 04:59:00,63.9,62.2,29.64,North,359,0.0,3.2,94,0.03,,,0.00,VWS V14.01,2013-11-01 08:59:00,
2013-11-01 05:04:00,64.0,62.3,29.64,North,359,0.0,3.2,94,0.03,,,0.00,VWS V14.01,2013-11-01 09:04:00,
2013-11-01 05:09:00,64.0,62.3,29.64,North,359,0.0,3.2,94,0.03,,,0.00,VWS V14.01,2013-11-01 09:09:00,
2013-11-01 05:14:00,64.1,62.3,29.64,North,359,0.0,3.2,94,0.03,,,0.00,VWS V14.01,2013-11-01 09:14:00,
2013-11-01 05:20:00,64.1,62.2,29.63,North,359,0.0,3.2,94,0.03,,,0.00,VWS V14.01,2013-11-01 09:20:00,
2013-11-01 05:25:00,64.2,62.3,29.62,North,359,0.0,3.2,94,0.03,,,0.00,VWS V14.01,2013-11-01 09:25:00,
2013-11-01 05:30:00,64.2,62.2,29.62,North,359,0.0,3.2,93,0.03,,,0.00,VWS V14.01,2013-11-01 09:30:00,
2013-11-01 05:35:00,64.4,62.2,29.62,North,359,0.0,3.2,93,0.03,,,0.00,VWS V14.01,2013-11-01 09:35:00,
2013-11-01 05:40:00,64.6,62.4,29.62,North,359,3.1,3.2,93,0.03,,,0.00,VWS V14.01,2013-11-01 09:40:00,
2013-11-01 05:45:00,64.7,62.5,29.62,West,273,0.0,8.8,92,0.03,,,0.00,VWS V14.01,2013-11-01 09:45:00,
2013-11-01 05:50:00,64.8,62.5,29.62,West,273,0.0,8.8,92,0.03,,,0.00,VWS V14.01,2013-11-01 09:50:00,
2013-11-01 05:55:00,64.8,62.5,29.61,West,273,0.0,8.8,92,0.03,,,0.00,VWS V14.01,2013-11-01 09:55:00,
2013-11-01 06:00:00,64.8,62.4,29.61,West,273,0.0,8.8,92,0.03,,,0.00,VWS V14.01,2013-11-01 10:00:00,
2013-11-01 06:05:00,64.9,62.5,29.61,West,273,0.0,8.8,92,0.03,,,0.00,VWS V14.01,2013-11-01 10:05:00,
2013-11-01 06:10:00,65.0,62.5,29.61,NNE,28,0.0,8.8,92,0.03,,,0.00,VWS V14.01,2013-11-01 10:10:00,
2013-11-01 06:15:00,65.1,62.6,29.61,NNE,28,0.0,8.8,92,0.03,,,0.00,VWS V14.01,2013-11-01 10:15:00,
2013-11-01 06:20:00,65.3,62.7,29.60,NNE,28,0.0,8.8,91,0.03,,,0.00,VWS V14.01,2013-11-01 10:20:00,
2013-11-01 06:25:00,65.4,62.7,29.60,North,359,0.0,8.8,91,0.03,,,0.00,VWS V14.01,2013-11-01 10:25:00,
2013-11-01 06:30:00,65.4,62.7,29.60,North,359,0.0,12.2,91,0.03,,,0.00,VWS V14.01,2013-11-01 10:30:00,
2013-11-01 06:35:00,65.7,62.9,29.60,NW,304,0.0,12.2,91,0.03,,,0.00,VWS V14.01,2013-11-01 10:35:00,
2013-11-01 06:40:00,65.8,63.1,29.60,NW,304,0.0,12.2,91,0.03,,,0.00,VWS V14.01,2013-11-01 10:40:00,
2013-11-01 06:45:00,65.7,63.1,29.60,SW,232,0.0,12.2,91,0.03,,,0.00,VWS V14.01,2013-11-01 10:45:00,
2013-11-01 06:50:00,65.7,63.2,29.60,SW,232,0.0,12.2,92,0.03,,,0.00,VWS V14.01,2013-11-01 10:50:00,
2013-11-01 06:55:00,65.6,63.2,29.60,North,11,0.0,18.0,92,0.03,,,0.00,VWS V14.01,2013-11-01 10:55:00,
2013-11-01 07:00:00,65.7,63.2,29.60,North,11,0.0,18.0,92,0.03,,,0.00,VWS V14.01,2013-11-01 11:00:00,
2013-11-01 07:05:00,65.7,63.3,29.60,North,11,0.0,18.0,92,0.03,,,0.00,VWS V14.01,2013-11-01 11:05:00,
2013-11-01 07:10:00,65.7,63.4,29.60,North,11,0.0,18.0,92,0.03,,,0.00,VWS V14.01,2013-11-01 11:10:00,
2013-11-01 07:15:00,65.7,63.5,29.60,NW,326,0.0,18.0,92,0.03,,,0.00,VWS V14.01,2013-11-01 11:15:00,
2013-11-01 07:20:00,65.7,63.7,29.59,NW,326,0.0,18.0,93,0.04,,,0.01,VWS V14.01,2013-11-01 11:20:00,
2013-11-01 07:25:00,65.6,63.7,29.59,WSW,248,0.0,18.0,94,0.04,,,0.01,VWS V14.01,2013-11-01 11:25:00,
2013-11-01 07:30:00,65.5,63.6,29.58,North,4,0.0,18.0,94,0.04,,,0.01,VWS V14.01,2013-11-01 11:30:00,
2013-11-01 07:35:00,65.5,63.7,29.59,North,4,0.0,18.0,94,0.04,,,0.01,VWS V14.01,2013-11-01 11:35:00,
2013-11-01 07:41:00,65.4,63.6,29.58,NNW,347,0.0,18.0,94,0.04,,,0.01,VWS V14.01,2013-11-01 11:41:00,
2013-11-01 07:46:00,65.4,63.6,29.58,NE,51,0.0,18.0,94,0.04,,,0.01,VWS V14.01,2013-11-01 11:46:00,
2013-11-01 07:51:00,65.5,63.6,29.58,North,8,0.0,18.0,94,0.04,,,0.01,VWS V14.01,2013-11-01 11:51:00,
2013-11-01 07:56:00,65.6,63.6,29.58,North,8,0.0,18.0,93,0.04,,,0.01,VWS V14.01,2013-11-01 11:56:00,
2013-11-01 08:01:00,65.6,63.6,29.58,NNE,15,0.0,18.0,93,0.04,,,0.01,VWS V14.01,2013-11-01 12:01:00,
2013-11-01 08:06:00,65.8,63.7,29.58,North,359,0.0,18.0,93,0.04,,,0.01,VWS V14.01,2013-11-01 12:06:00,
2013-11-01 08:11:00,65.8,63.7,29.58,NW,316,0.0,18.0,93,0.04,,,0.01,VWS V14.01,2013-11-01 12:11:00,
2013-11-01 08:16:00,65.9,63.8,29.58,NW,316,0.0,18.0,93,0.04,,,0.01,VWS V14.01,2013-11-01 12:16:00,
2013-11-01 08:21:00,66.0,63.8,29.58,NW,316,0.0,18.0,93,0.04,,,0.01,VWS V14.01,2013-11-01 12:21:00,
2013-11-01 08:26:00,66.0,63.8,29.58,NW,316,0.0,18.0,93,0.04,,,0.01,VWS V14.01,2013-11-01 12:26:00,
2013-11-01 08:31:00,66.1,63.8,29.58,NW,316,0.0,18.0,92,0.04,,,0.01,VWS V14.01,2013-11-01 12:31:00,
2013-11-01 08:36:00,66.2,63.8,29.58,NNE,20,0.0,18.0,92,0.04,,,0.01,VWS V14.01,2013-11-01 12:36:00,
2013-11-01 08:41:00,66.2,63.8,29.57,North,4,0.0,18.0,92,0.04,,,0.01,VWS V14.01,2013-11-01 12:41:00,
2013-11-01 08:46:00,66.2,63.8,29.57,NW,321,0.0,18.0,92,0.04,,,0.01,VWS V14.01,2013-11-01 12:46:00,
2013-11-01 08:51:00,66.2,63.8,29.57,West,266,0.0,18.0,92,0.04,,,0.01,VWS V14.01,2013-11-01 12:51:00,
2013-11-01 08:56:00,66.1,63.7,29.57,West,266,0.0,18.0,92,0.04,,,0.01,VWS V14.01,2013-11-01 12:56:00,
2013-11-01 09:01:00,66.2,63.8,29.57,WSW,249,0.0,18.0,92,0.04,,,0.01,VWS V14.01,2013-11-01 13:01:00,
2013-11-01 09:06:00,66.2,63.8,29.57,North,0,0.0,18.0,92,0.04,,,0.01,VWS V14.01,2013-11-01 13:06:00,
2013-11-01 09:11:00,66.2,63.8,29.57,North,0,0.0,18.0,92,0.04,,,0.01,VWS V14.01,2013-11-01 13:11:00,
2013-11-01 09:16:00,66.3,63.8,29.57,North,0,0.0,18.0,92,0.04,,,0.01,VWS V14.01,2013-11-01 13:16:00,
2013-11-01 09:21:00,66.3,63.8,29.57,North,0,0.0,18.0,92,0.04,,,0.01,VWS V14.01,2013-11-01 13:21:00,
2013-11-01 09:26:00,66.3,63.7,29.57,North,0,0.0,18.0,91,0.04,,,0.01,VWS V14.01,2013-11-01 13:26:00,
2013-11-01 09:31:00,66.3,63.7,29.57,North,0,0.0,18.0,91,0.04,,,0.01,VWS V14.01,2013-11-01 13:31:00,
2013-11-01 09:36:00,66.4,63.8,29.56,North,0,0.0,18.0,91,0.04,,,0.01,VWS V14.01,2013-11-01 13:36:00,
2013-11-01 09:41:00,66.4,63.7,29.56,North,0,0.0,18.0,91,0.04,,,0.01,VWS V14.01,2013-11-01 13:41:00,
2013-11-01 09:46:00,66.6,63.9,29.56,North,359,0.0,18.0,91,0.04,,,0.01,VWS V14.01,2013-11-01 13:46:00,
2013-11-01 09:52:00,66.4,64.0,29.56,North,359,0.0,18.0,92,0.04,,,0.01,VWS V14.01,2013-11-01 13:52:00,
2013-11-01 09:57:00,66.4,64.2,29.57,North,359,0.0,18.0,92,0.05,,,0.02,VWS V14.01,2013-11-01 13:57:00,
2013-11-01 10:02:00,65.8,63.8,29.60,North,359,0.0,18.0,93,0.09,,,0.06,VWS V14.01,2013-11-01 14:02:00,
2013-11-01 10:07:00,63.7,61.0,29.58,North,359,0.0,18.0,91,0.12,,,0.09,VWS V14.01,2013-11-01 14:07:00,
2013-11-01 10:12:00,62.8,60.6,29.59,NNE,22,0.0,18.0,93,0.12,,,0.09,VWS V14.01,2013-11-01 14:12:00,
2013-11-01 10:17:00,62.3,60.3,29.60,NNE,22,0.0,18.0,93,0.12,,,0.09,VWS V14.01,2013-11-01 14:17:00,
2013-11-01 10:22:00,62.2,60.5,29.60,NNE,22,0.0,18.0,94,0.12,,,0.09,VWS V14.01,2013-11-01 14:22:00,
2013-11-01 10:27:00,62.2,60.6,29.60,NNE,22,0.0,18.0,95,0.12,,,0.09,VWS V14.01,2013-11-01 14:27:00,
2013-11-01 10:32:00,62.4,60.9,29.60,NNE,22,0.0,18.0,95,0.12,,,0.09,VWS V14.01,2013-11-01 14:32:00,
2013-11-01 10:37:00,62.5,60.4,29.60,NNE,22,0.0,18.0,93,0.12,,,0.09,VWS V14.01,2013-11-01 14:37:00,
2013-11-01 10:42:00,62.7,60.5,29.60,North,8,0.0,18.0,93,0.12,,,0.09,VWS V14.01,2013-11-01 14:42:00,
2013-11-01 10:47:00,62.6,60.0,29.60,North,8,0.0,18.0,91,0.12,,,0.09,VWS V14.01,2013-11-01 14:47:00,
2013-11-01 10:52:00,62.5,59.0,29.59,North,8,0.0,18.0,88,0.12,,,0.09,VWS V14.01,2013-11-01 14:52:00,
2013-11-01 10:57:00,62.4,58.8,29.58,North,8,0.0,18.0,88,0.12,,,0.09,VWS V14.01,2013-11-01 14:57:00,
2013-11-01 11:02:00,62.4,58.7,29.58,North,8,0.0,18.0,88,0.12,,,0.09,VWS V14.01,2013-11-01 15:02:00,
2013-11-01 11:07:00,62.4,58.8,29.58,North,8,0.0,18.0,88,0.12,,,0.09,VWS V14.01,2013-11-01 15:07:00,
2013-11-01 11:12:00,62.5,57.3,29.58,North,8,0.0,18.0,83,0.12,,,0.09,VWS V14.01,2013-11-01 15:12:00,
2013-11-01 11:17:00,62.6,58.0,29.58,North,8,0.0,18.0,85,0.12,,,0.09,VWS V14.01,2013-11-01 15:17:00,
2013-11-01 11:22:00,62.6,56.4,29.58,North,8,0.0,18.0,80,0.12,,,0.09,VWS V14.01,2013-11-01 15:22:00,
2013-11-01 11:27:00,62.7,56.2,29.58,North,8,0.0,18.0,79,0.12,,,0.09,VWS V14.01,2013-11-01 15:27:00,
2013-11-01 11:32:00,62.8,56.6,29.58,North,8,0.0,18.0,80,0.12,,,0.09,VWS V14.01,2013-11-01 15:32:00,
2013-11-01 11:37:00,62.7,56.9,29.57,North,8,0.0,18.0,81,0.12,,,0.09,VWS V14.01,2013-11-01 15:37:00,
2013-11-01 11:42:00,62.6,56.0,29.59,North,8,0.0,18.0,79,0.12,,,0.09,VWS V14.01,2013-11-01 15:42:00,
2013-11-01 11:47:00,62.8,56.5,29.58,North,8,0.0,18.0,80,0.12,,,0.09,VWS V14.01,2013-11-01 15:47:00,
2013-11-01 11:50:00,58.3,53.2,29.68,North,8,0.0,95.6,83,0.12,,,8.31,VWS V14.01,2013-11-01 15:50:00,
2013-11-01 11:52:00,62.8,56.7,29.58,North,8,0.0,18.0,80,0.12,,,0.09,VWS V14.01,2013-11-01 15:52:00,
2013-11-01 11:58:00,62.9,56.8,29.58,North,8,0.0,18.0,80,0.12,,,0.09,VWS V14.01,2013-11-01 15:58:00,
2013-11-01 12:03:00,63.0,56.5,29.59,North,8,0.0,18.0,79,0.12,,,0.09,VWS V14.01,2013-11-01 16:03:00,
2013-11-01 12:08:00,63.1,56.6,29.59,North,8,0.0,18.0,79,0.12,,,0.09,VWS V14.01,2013-11-01 16:08:00,
2013-11-01 12:13:00,63.4,56.6,29.58,North,8,0.0,18.0,78,0.12,,,0.09,VWS V14.01,2013-11-01 16:13:00,
2013-11-01 12:18:00,63.5,56.6,29.57,North,8,0.0,18.0,78,0.12,,,0.09,VWS V14.01,2013-11-01 16:18:00,
2013-11-01 12:23:00,63.6,56.9,29.58,North,8,0.0,18.0,79,0.12,,,0.09,VWS V14.01,2013-11-01 16:23:00,
2013-11-01 12:28:00,63.6,57.2,29.58,North,8,0.0,18.0,80,0.12,,,0.09,VWS V14.01,2013-11-01 16:28:00,
2013-11-01 12:33:00,63.7,57.8,29.59,North,8,0.0,18.0,81,0.12,,,0.09,VWS V14.01,2013-11-01 16:33:00,
2013-11-01 12:38:00,63.5,56.7,29.59,North,8,0.0,18.0,79,0.12,,,0.09,VWS V14.01,2013-11-01 16:38:00,
2013-11-01 12:43:00,63.7,57.0,29.58,North,8,0.0,18.0,79,0.12,,,0.09,VWS V14.01,2013-11-01 16:43:00,
2013-11-01 12:48:00,63.7,57.6,29.58,North,8,0.0,18.0,81,0.12,,,0.09,VWS V14.01,2013-11-01 16:48:00,
2013-11-01 12:53:00,64.0,57.7,29.58,North,8,0.0,18.0,80,0.12,,,0.09,VWS V14.01,2013-11-01 16:53:00,
2013-11-01 12:58:00,64.0,57.3,29.58,North,8,0.0,18.0,79,0.12,,,0.09,VWS V14.01,2013-11-01 16:58:00,
2013-11-01 13:03:00,64.2,57.5,29.57,North,8,0.0,18.0,79,0.12,,,0.09,VWS V14.01,2013-11-01 17:03:00,
2013-11-01 13:08:00,64.4,57.6,29.57,North,8,0.0,18.0,79,0.12,,,0.09,VWS V14.01,2013-11-01 17:08:00,
2013-11-01 13:13:00,64.4,56.8,29.56,North,8,0.0,18.0,76,0.12,,,0.09,VWS V14.01,2013-11-01 17:13:00,
2013-11-01 13:18:00,64.7,56.6,29.56,North,8,0.0,18.0,75,0.12,,,0.09,VWS V14.01,2013-11-01 17:18:00,
2013-11-01 13:23:00,65.1,57.7,29.56,North,8,0.0,18.0,77,0.12,,,0.09,VWS V14.01,2013-11-01 17:23:00,
2013-11-01 13:28:00,65.4,57.2,29.56,North,8,0.0,18.0,75,0.12,,,0.09,VWS V14.01,2013-11-01 17:28:00,
2013-11-01 13:33:00,65.6,57.3,29.56,North,8,0.0,18.0,75,0.12,,,0.09,VWS V14.01,2013-11-01 17:33:00,
2013-11-01 13:38:00,66.0,57.6,29.56,North,8,0.0,18.0,74,0.12,,,0.09,VWS V14.01,2013-11-01 17:38:00,
2013-11-01 13:43:00,66.4,57.0,29.56,North,8,0.0,18.0,72,0.12,,,0.09,VWS V14.01,2013-11-01 17:43:00,
2013-11-01 13:48:00,66.9,57.2,29.56,North,8,0.0,18.0,71,0.12,,,0.09,VWS V14.01,2013-11-01 17:48:00,
2013-11-01 13:53:00,67.2,56.6,29.56,North,8,0.0,18.0,69,0.12,,,0.09,VWS V14.01,2013-11-01 17:53:00,
2013-11-01 13:58:00,67.2,55.8,29.56,North,8,0.0,18.0,67,0.12,,,0.09,VWS V14.01,2013-11-01 17:58:00,
2013-11-01 14:03:00,67.3,57.0,29.56,North,8,0.0,18.0,70,0.12,,,0.09,VWS V14.01,2013-11-01 18:03:00,
2013-11-01 14:09:00,67.0,55.8,29.56,North,8,0.0,18.0,67,0.12,,,0.09,VWS V14.01,2013-11-01 18:09:00,
2013-11-01 14:14:00,66.8,54.7,29.56,North,8,0.0,18.0,65,0.12,,,0.09,VWS V14.01,2013-11-01 18:14:00,
2013-11-01 14:19:00,66.8,54.4,29.56,North,8,0.0,18.0,64,0.12,,,0.09,VWS V14.01,2013-11-01 18:19:00,
2013-11-01 14:24:00,66.8,54.4,29.55,North,8,0.0,18.0,64,0.12,,,0.09,VWS V14.01,2013-11-01 18:24:00,
2013-11-01 14:29:00,66.9,53.5,29.56,North,8,0.0,18.0,62,0.12,,,0.09,VWS V14.01,2013-11-01 18:29:00,
2013-11-01 14:34:00,67.2,53.1,29.56,North,8,0.0,18.0,61,0.12,,,0.09,VWS V14.01,2013-11-01 18:34:00,
2013-11-01 14:39:00,67.4,53.0,29.56,North,8,0.0,18.0,60,0.12,,,0.09,VWS V14.01,2013-11-01 18:39:00,
2013-11-01 14:44:00,67.7,53.4,29.55,North,8,0.0,18.0,60,0.12,,,0.09,VWS V14.01,2013-11-01 18:44:00,
2013-11-01 14:49:00,67.8,52.4,29.55,North,8,0.0,18.0,58,0.12,,,0.09,VWS V14.01,2013-11-01 18:49:00,
2013-11-01 14:54:00,67.9,53.2,29.55,North,8,0.0,18.0,59,0.12,,,0.09,VWS V14.01,2013-11-01 18:54:00,
2013-11-01 14:59:00,67.9,52.7,29.55,North,8,0.0,18.0,58,0.12,,,0.09,VWS V14.01,2013-11-01 18:59:00,
2013-11-01 15:04:00,68.0,53.0,29.56,North,8,0.0,18.0,59,0.12,,,0.09,VWS V14.01,2013-11-01 19:04:00,
2013-11-01 15:09:00,68.1,52.7,29.56,North,8,0.0,18.0,58,0.12,,,0.09,VWS V14.01,2013-11-01 19:09:00,
2013-11-01 15:14:00,68.1,52.7,29.56,North,8,0.0,18.0,58,0.12,,,0.09,VWS V14.01,2013-11-01 19:14:00,
2013-11-01 15:19:00,68.2,52.1,29.56,North,4,0.0,18.0,56,0.12,,,0.09,VWS V14.01,2013-11-01 19:19:00,
2013-11-01 15:24:00,68.3,51.8,29.56,North,4,0.0,18.0,56,0.12,,,0.09,VWS V14.01,2013-11-01 19:24:00,
2013-11-01 15:29:00,68.4,51.9,29.56,North,4,0.0,18.0,56,0.12,,,0.09,VWS V14.01,2013-11-01 19:29:00,
2013-11-01 15:34:00,68.4,51.5,29.56,North,4,0.0,18.0,55,0.12,,,0.09,VWS V14.01,2013-11-01 19:34:00,
2013-11-01 15:39:00,68.2,50.8,29.57,North,8,0.0,18.0,54,0.12,,,0.09,VWS V14.01,2013-11-01 19:39:00,
2013-11-01 15:44:00,68.1,51.0,29.56,North,8,0.0,18.0,54,0.12,,,0.09,VWS V14.01,2013-11-01 19:44:00,
2013-11-01 15:49:00,68.0,51.1,29.57,North,8,0.0,18.0,55,0.12,,,0.09,VWS V14.01,2013-11-01 19:49:00,
2013-11-01 15:54:00,67.8,51.5,29.56,North,8,0.0,18.0,56,0.12,,,0.09,VWS V14.01,2013-11-01 19:54:00,
2013-11-01 16:00:00,67.3,51.2,29.57,North,8,0.0,18.0,56,0.12,,,0.09,VWS V14.01,2013-11-01 20:00:00,
2013-11-01 16:05:00,67.1,52.1,29.56,North,8,0.0,18.0,59,0.12,,,0.09,VWS V14.01,2013-11-01 20:05:00,
2013-11-01 16:10:00,67.1,51.4,29.56,North,8,0.0,18.0,57,0.12,,,0.09,VWS V14.01,2013-11-01 20:10:00,
2013-11-01 16:15:00,67.0,51.5,29.57,North,8,0.0,18.0,58,0.12,,,0.09,VWS V14.01,2013-11-01 20:15:00,
2013-11-01 16:20:00,66.7,51.5,29.57,North,8,0.0,18.0,58,0.12,,,0.09,VWS V14.01,2013-11-01 20:20:00,
2013-11-01 16:25:00,66.6,51.5,29.57,North,8,0.0,18.0,58,0.12,,,0.09,VWS V14.01,2013-11-01 20:25:00,
2013-11-01 16:30:00,66.4,51.4,29.57,North,8,0.0,18.0,58,0.12,,,0.09,VWS V14.01,2013-11-01 20:30:00,
2013-11-01 16:35:00,66.4,51.5,29.57,North,8,0.0,18.0,59,0.12,,,0.09,VWS V14.01,2013-11-01 20:35:00,
2013-11-01 16:40:00,66.4,51.8,29.57,North,8,0.0,18.0,59,0.12,,,0.09,VWS V14.01,2013-11-01 20:40:00,
2013-11-01 16:45:00,66.3,51.9,29.57,North,8,0.0,18.0,60,0.12,,,0.09,VWS V14.01,2013-11-01 20:45:00,
2013-11-01 16:50:00,66.3,51.5,29.57,North,8,0.0,18.0,59,0.12,,,0.09,VWS V14.01,2013-11-01 20:50:00,
2013-11-01 16:55:00,66.4,51.8,29.57,North,8,0.0,18.0,59,0.12,,,0.09,VWS V14.01,2013-11-01 20:55:00,
2013-11-01 17:00:00,66.6,51.7,29.57,North,8,0.0,18.0,59,0.12,,,0.09,VWS V14.01,2013-11-01 21:00:00,
2013-11-01 17:04:00,56.7,53.2,29.71,North,0,0.0,239.7,88,0.12,,,8.81,VWS V14.01,2013-11-01 21:04:00,
2013-11-01 17:05:00,66.4,51.3,29.57,North,8,0.0,18.0,58,0.12,,,0.09,VWS V14.01,2013-11-01 21:05:00,
2013-11-01 17:10:00,66.3,51.1,29.57,North,8,0.0,18.0,58,0.12,,,0.09,VWS V14.01,2013-11-01 21:10:00,
2013-11-01 17:13:00,58.3,53.3,29.68,North,8,0.0,95.6,83,0.12,,,0.00,VWS V14.01,2013-11-01 21:13:00,
2013-11-01 17:15:00,66.1,51.5,29.57,North,8,0.0,18.0,59,0.12,,,0.09,VWS V14.01,2013-11-01 21:15:00,
2013-11-01 17:20:00,66.0,52.0,29.57,North,8,0.0,18.0,60,0.12,,,0.09,VWS V14.01,2013-11-01 21:20:00,
2013-11-01 17:26:00,65.7,51.7,29.57,North,8,0.0,18.0,61,0.12,,,0.09,VWS V14.01,2013-11-01 21:26:00,
2013-11-01 17:31:00,65.5,51.6,29.57,North,8,0.0,18.0,61,0.12,,,0.09,VWS V14.01,2013-11-01 21:31:00,
2013-11-01 17:36:00,65.4,52.0,29.58,North,8,0.0,18.0,62,0.12,,,0.09,VWS V14.01,2013-11-01 21:36:00,
2013-11-01 17:41:00,65.1,51.7,29.58,North,8,0.0,18.0,62,0.12,,,0.09,VWS V14.01,2013-11-01 21:41:00,
2013-11-01 17:46:00,65.0,51.9,29.58,North,8,0.0,18.0,62,0.12,,,0.09,VWS V14.01,2013-11-01 21:46:00,
2013-11-01 17:51:00,64.7,51.9,29.58,North,8,0.0,18.0,63,0.12,,,0.09,VWS V14.01,2013-11-01 21:51:00,
2013-11-01 17:56:00,64.4,51.5,29.59,North,8,0.0,18.0,63,0.12,,,0.09,VWS V14.01,2013-11-01 21:56:00,
2013-11-01 18:01:00,64.3,51.8,29.59,North,8,0.0,18.0,64,0.12,,,0.09,VWS V14.01,2013-11-01 22:01:00,
2013-11-01 18:06:00,64.1,51.7,29.59,North,8,0.0,18.0,64,0.12,,,0.09,VWS V14.01,2013-11-01 22:06:00,
2013-11-01 18:11:00,64.0,51.8,29.59,North,8,0.0,18.0,65,0.12,,,0.09,VWS V14.01,2013-11-01 22:11:00,
2013-11-01 18:16:00,63.8,51.8,29.60,North,8,0.0,18.0,65,0.12,,,0.09,VWS V14.01,2013-11-01 22:16:00,
2013-11-01 18:21:00,63.8,51.8,29.60,North,8,0.0,18.0,65,0.12,,,0.09,VWS V14.01,2013-11-01 22:21:00,
2013-11-01 18:26:00,63.7,51.8,29.60,North,8,0.0,18.0,65,0.12,,,0.09,VWS V14.01,2013-11-01 22:26:00,
2013-11-01 18:31:00,63.6,51.9,29.61,North,8,0.0,18.0,66,0.12,,,0.09,VWS V14.01,2013-11-01 22:31:00,
2013-11-01 18:36:00,63.5,51.9,29.61,North,8,0.0,18.0,66,0.12,,,0.09,VWS V14.01,2013-11-01 22:36:00,
2013-11-01 18:41:00,63.4,52.0,29.61,North,8,0.0,18.0,66,0.12,,,0.09,VWS V14.01,2013-11-01 22:41:00,
2013-11-01 18:46:00,63.1,52.1,29.61,North,8,0.0,18.0,67,0.12,,,0.09,VWS V14.01,2013-11-01 22:46:00,
2013-11-01 18:51:00,63.0,52.0,29.62,North,8,0.0,18.0,67,0.12,,,0.09,VWS V14.01,2013-11-01 22:51:00,
2013-11-01 18:56:00,62.9,52.0,29.62,North,8,0.0,18.0,67,0.12,,,0.09,VWS V14.01,2013-11-01 22:56:00,
2013-11-01 19:02:00,62.8,51.9,29.62,North,8,0.0,18.0,68,0.12,,,0.09,VWS V14.01,2013-11-01 23:02:00,
2013-11-01 19:07:00,62.7,52.0,29.63,North,8,0.0,18.0,68,0.12,,,0.09,VWS V14.01,2013-11-01 23:07:00,
2013-11-01 19:12:00,62.5,51.9,29.63,North,8,0.0,18.0,68,0.12,,,0.09,VWS V14.01,2013-11-01 23:12:00,
2013-11-01 19:17:00,62.4,52.0,29.64,North,8,0.0,18.0,69,0.12,,,0.09,VWS V14.01,2013-11-01 23:17:00,
2013-11-01 19:22:00,62.2,51.9,29.64,North,8,0.0,18.0,69,0.12,,,0.09,VWS V14.01,2013-11-01 23:22:00,
2013-11-01 19:27:00,62.0,51.8,29.64,North,8,0.0,18.0,69,0.12,,,0.09,VWS V14.01,2013-11-01 23:27:00,
2013-11-01 19:32:00,61.8,51.9,29.64,North,8,0.0,18.0,70,0.12,,,0.09,VWS V14.01,2013-11-01 23:32:00,
2013-11-01 19:37:00,61.5,51.7,29.65,North,8,0.0,18.0,70,0.12,,,0.09,VWS V14.01,2013-11-01 23:37:00,
2013-11-01 19:42:00,61.4,51.8,29.65,North,8,0.0,18.0,71,0.12,,,0.09,VWS V14.01,2013-11-01 23:42:00,
2013-11-01 19:47:00,61.2,51.8,29.65,North,8,0.0,18.0,71,0.12,,,0.09,VWS V14.01,2013-11-01 23:47:00,
2013-11-01 19:52:00,61.1,52.0,29.65,North,8,0.0,18.0,72,0.12,,,0.09,VWS V14.01,2013-11-01 23:52:00,
2013-11-01 19:57:00,60.9,52.1,29.65,North,8,0.0,18.0,73,0.12,,,0.09,VWS V14.01,2013-11-01 23:57:00,
2013-11-01 20:02:00,60.7,52.1,29.66,North,8,0.0,18.0,73,0.12,,,0.09,VWS V14.01,2013-11-02 00:02:00,
2013-11-01 20:07:00,60.5,52.1,29.66,North,8,0.0,18.0,74,0.12,,,0.09,VWS V14.01,2013-11-02 00:07:00,
2013-11-01 20:12:00,60.3,52.1,29.66,North,8,0.0,18.0,74,0.12,,,0.09,VWS V14.01,2013-11-02 00:12:00,
2013-11-01 20:17:00,60.2,52.2,29.66,North,8,0.0,18.0,75,0.12,,,0.09,VWS V14.01,2013-11-02 00:17:00,
2013-11-01 20:22:00,60.0,52.2,29.66,North,8,0.0,18.0,75,0.12,,,0.09,VWS V14.01,2013-11-02 00:22:00,
2013-11-01 20:27:00,59.8,52.3,29.66,North,8,0.0,18.0,76,0.12,,,0.09,VWS V14.01,2013-11-02 00:27:00,
2013-11-01 20:32:00,59.7,52.4,29.66,North,8,0.0,18.0,77,0.12,,,0.09,VWS V14.01,2013-11-02 00:32:00,
2013-11-01 20:38:00,59.5,52.5,29.67,North,8,0.0,18.0,78,0.12,,,0.09,VWS V14.01,2013-11-02 00:38:00,
2013-11-01 20:43:00,59.5,52.8,29.67,North,8,0.0,18.0,78,0.12,,,0.09,VWS V14.01,2013-11-02 00:43:00,
2013-11-01 20:45:00,58.2,53.3,29.69,North,8,0.0,95.6,84,0.12,,,0.09,VWS V14.01,2013-11-02 00:45:00,
2013-11-01 20:48:00,59.4,52.8,29.67,North,8,0.0,18.0,79,0.12,,,0.09,VWS V14.01,2013-11-02 00:48:00,
2013-11-01 20:51:00,58.0,53.2,29.69,North,8,0.0,95.6,84,0.12,,,0.09,VWS V14.01,2013-11-02 00:51:00,
2013-11-01 20:52:00,57.9,53.1,29.69,North,8,0.0,95.6,84,0.12,,,0.09,VWS V14.01,2013-11-02 00:52:00,
2013-11-01 20:53:00,59.3,52.9,29.67,North,8,0.0,18.0,79,0.12,,,0.09,VWS V14.01,2013-11-02 00:53:00,
2013-11-01 20:54:00,57.7,53.2,29.69,North,8,0.0,95.6,85,0.12,,,0.09,VWS V14.01,2013-11-02 00:54:00,
2013-11-01 20:58:00,59.2,53.1,29.67,North,8,0.0,18.0,80,0.12,,,0.09,VWS V14.01,2013-11-02 00:58:00,
2013-11-01 20:59:00,57.4,4.5,29.69,North,8,0.0,95.6,12,0.12,,,0.19,VWS V14.01,2013-11-02 00:59:00,
2013-11-01 21:03:00,59.1,53.2,29.67,North,8,0.0,18.0,81,0.12,,,0.09,VWS V14.01,2013-11-02 01:03:00,
2013-11-01 21:05:00,57.0,52.7,29.70,North,8,0.0,239.7,86,0.00,,,0.09,VWS V14.01,2013-11-02 01:05:00,
2013-11-01 21:06:00,57.0,52.8,29.70,North,8,0.0,239.7,86,0.12,,,0.00,VWS V14.01,2013-11-02 01:06:00,
2013-11-01 21:07:00,56.9,52.7,29.70,North,8,0.0,239.7,86,0.12,,,0.09,VWS V14.01,2013-11-02 01:07:00,
2013-11-01 21:08:00,59.2,53.5,29.68,North,8,0.0,18.0,81,0.12,,,0.09,VWS V14.01,2013-11-02 01:08:00,
2013-11-01 21:09:00,56.9,52.8,29.70,North,8,0.0,239.7,86,0.12,,,0.09,VWS V14.01,2013-11-02 01:09:00,
2013-11-01 21:12:00,56.7,52.8,29.70,North,8,0.0,239.7,87,0.12,,,0.09,VWS V14.01,2013-11-02 01:12:00,
2013-11-01 21:13:00,59.1,53.4,29.68,North,8,0.0,18.0,81,0.12,,,0.09,VWS V14.01,2013-11-02 01:13:00,
2013-11-01 21:14:00,56.8,53.1,29.70,North,8,0.0,239.7,87,0.12,,,0.09,VWS V14.01,2013-11-02 01:14:00,
2013-11-01 21:16:00,56.7,53.2,29.70,North,8,0.0,239.7,88,0.12,,,0.09,VWS V14.01,2013-11-02 01:16:00,
2013-11-01 21:17:00,56.8,53.3,29.70,North,8,0.0,239.7,88,0.12,,,0.09,VWS V14.01,2013-11-02 01:17:00,
2013-11-01 21:18:00,59.0,53.5,29.68,North,8,0.0,18.0,82,0.12,,,0.09,VWS V14.01,2013-11-02 01:18:00,
2013-11-01 21:19:00,56.7,53.3,29.71,North,8,0.0,239.7,88,0.12,,,0.09,VWS V14.01,2013-11-02 01:19:00,
2013-11-01 21:20:00,56.7,53.3,29.71,North,8,0.0,239.7,88,0.12,,,0.00,VWS V14.01,2013-11-02 01:20:00,
2013-11-01 21:21:00,56.8,53.3,29.71,North,8,0.0,239.7,88,0.12,,,0.09,VWS V14.01,2013-11-02 01:21:00,
2013-11-01 21:23:00,58.8,53.3,29.68,North,8,0.0,18.0,82,0.12,,,0.09,VWS V14.01,2013-11-02 01:23:00,
2013-11-01 21:24:00,56.7,53.6,29.71,North,8,0.0,239.7,89,0.12,,,0.09,VWS V14.01,2013-11-02 01:24:00,
2013-11-01 21:25:00,56.7,53.5,29.71,North,8,0.0,239.7,89,0.12,,,0.09,VWS V14.01,2013-11-02 01:25:00,
2013-11-01 21:26:00,128.6,99.9,0.00,North,8,0.0,239.7,89,0.12,,,0.09,VWS V14.01,2013-11-02 01:26:00,
2013-11-01 21:27:00,56.6,53.3,29.71,North,8,0.0,239.7,89,0.12,,,0.09,VWS V14.01,2013-11-02 01:27:00,
2013-11-01 21:28:00,58.7,53.3,29.68,North,8,0.0,18.0,82,0.12,,,0.09,VWS V14.01,2013-11-02 01:28:00,
2013-11-01 21:29:00,56.7,53.4,29.70,North,8,0.0,239.7,89,0.12,,,0.09,VWS V14.01,2013-11-02 01:29:00,
2013-11-01 21:30:00,56.6,53.2,29.71,North,8,0.0,239.7,88,8.79,,,0.09,VWS V14.01,2013-11-02 01:30:00,
2013-11-01 21:32:00,56.5,53.3,29.70,North,8,0.0,239.7,89,0.12,,,0.00,VWS V14.01,2013-11-02 01:32:00,
2013-11-01 21:33:00,58.6,53.6,29.68,North,8,0.0,18.0,83,0.12,,,0.09,VWS V14.01,2013-11-02 01:33:00,
2013-11-01 21:34:00,56.3,53.0,29.71,North,8,0.0,239.7,89,0.12,,,0.09,VWS V14.01,2013-11-02 01:34:00,
2013-11-01 21:35:00,56.3,53.1,29.70,North,8,0.0,239.7,89,0.12,,,0.09,VWS V14.01,2013-11-02 01:35:00,
2013-11-01 21:36:00,56.1,52.9,29.71,North,8,0.0,239.7,89,0.12,,,0.09,VWS V14.01,2013-11-02 01:36:00,
2013-11-01 21:37:00,56.1,53.0,29.70,North,8,0.0,239.7,89,0.12,,,0.09,VWS V14.01,2013-11-02 01:37:00,
2013-11-01 21:38:00,58.4,53.4,29.68,North,8,0.0,18.0,83,0.12,,,0.09,VWS V14.01,2013-11-02 01:38:00,
2013-11-01 21:39:00,56.0,53.0,29.70,North,8,0.0,239.7,90,0.12,,,0.09,VWS V14.01,2013-11-02 01:39:00,
2013-11-01 21:40:00,56.0,53.1,29.70,North,8,0.0,239.7,90,0.12,,,0.09,VWS V14.01,2013-11-02 01:40:00,
2013-11-01 21:41:00,55.9,53.0,29.70,North,8,0.0,239.7,90,0.12,,,0.09,VWS V14.01,2013-11-02 01:41:00,
2013-11-01 21:42:00,55.7,52.8,29.70,North,8,0.0,239.7,90,0.12,,,0.09,VWS V14.01,2013-11-02 01:42:00,
2013-11-01 21:44:00,55.6,52.7,29.70,North,8,0.0,239.7,90,0.12,,,0.09,VWS V14.01,2013-11-02 01:44:00,
2013-11-01 21:45:00,55.5,52.6,29.70,North,8,0.0,239.7,90,0.12,,,0.09,VWS V14.01,2013-11-02 01:45:00,
2013-11-01 21:46:00,58.1,53.2,29.69,North,8,0.0,95.6,84,0.12,,,0.09,VWS V14.01,2013-11-02 01:46:00,
2013-11-01 21:47:00,55.3,52.4,29.70,North,8,0.0,239.7,90,74.83,,,0.09,VWS V14.01,2013-11-02 01:47:00,
2013-11-01 21:50:00,55.0,52.2,29.70,North,8,0.0,239.7,90,0.12,,,0.09,VWS V14.01,2013-11-02 01:50:00,
2013-11-01 21:51:00,54.9,52.2,29.70,North,8,0.0,239.7,91,0.12,,,0.09,VWS V14.01,2013-11-02 01:51:00,
2013-11-01 21:53:00,57.8,53.3,29.69,North,8,0.0,95.6,85,0.12,,,0.09,VWS V14.01,2013-11-02 01:53:00,
2013-11-01 21:54:00,54.7,0.0,2.09,North,0,8.9,239.7,0,62.15,,,0.00,VWS V14.01,2013-11-02 01:54:00,
2013-11-01 21:55:00,54.5,52.0,29.71,North,8,0.0,239.7,91,0.12,,,0.09,VWS V14.01,2013-11-02 01:55:00,
2013-11-01 21:56:00,54.5,52.0,29.71,North,8,0.0,239.7,91,0.12,,,0.09,VWS V14.01,2013-11-02 01:56:00,
2013-11-01 21:58:00,54.3,52.0,29.71,North,8,0.0,239.7,92,0.12,,,0.09,VWS V14.01,2013-11-02 01:58:00,
2013-11-01 22:01:00,57.3,52.8,29.69,North,8,0.0,190.9,85,0.12,,,0.09,VWS V14.01,2013-11-02 02:01:00,
2013-11-01 22:02:00,53.8,51.6,29.71,North,8,0.0,239.7,92,0.18,,,0.09,VWS V14.01,2013-11-02 02:02:00,
2013-11-01 22:03:00,53.9,51.7,29.71,North,8,0.0,239.7,92,0.12,,,23.04,VWS V14.01,2013-11-02 02:03:00,
2013-11-01 22:05:00,53.9,51.8,29.71,North,8,0.0,239.7,93,0.12,,,3.04,VWS V14.01,2013-11-02 02:05:00,
2013-11-01 22:07:00,56.9,52.8,29.70,North,8,0.0,239.7,86,0.12,,,0.09,VWS V14.01,2013-11-02 02:07:00,
2013-11-01 22:11:00,53.4,51.4,29.71,North,8,0.0,239.7,93,0.12,,,0.00,VWS V14.01,2013-11-02 02:11:00,
2013-11-01 22:14:00,56.7,0.0,81.64,North,8,0.0,239.7,0,5.46,,,23.04,VWS V14.01,2013-11-02 02:14:00,
2013-11-01 22:15:00,53.6,51.4,29.71,North,8,0.0,239.7,92,0.12,,,0.09,VWS V14.01,2013-11-02 02:15:00,
2013-11-01 22:16:00,53.7,51.4,29.71,North,8,0.0,239.7,92,0.12,,,0.09,VWS V14.01,2013-11-02 02:16:00,
2013-11-01 22:17:00,53.7,51.3,29.71,North,8,0.0,239.7,92,0.12,,,0.09,VWS V14.01,2013-11-02 02:17:00,
2013-11-01 22:18:00,53.8,51.3,29.71,North,8,0.0,239.7,91,0.12,,,0.09,VWS V14.01,2013-11-02 02:18:00,
2013-11-01 22:19:00,53.9,51.3,29.71,North,8,0.0,239.7,91,0.12,,,0.09,VWS V14.01,2013-11-02 02:19:00,
2013-11-01 22:20:00,53.9,51.3,29.71,North,8,0.0,239.7,91,0.12,,,0.09,VWS V14.01,2013-11-02 02:20:00,
2013-11-01 22:21:00,54.0,51.3,29.71,North,8,0.0,239.7,91,0.12,,,0.09,VWS V14.01,2013-11-02 02:21:00,
2013-11-01 22:22:00,54.1,51.3,29.71,North,8,0.0,239.7,90,0.12,,,0.09,VWS V14.01,2013-11-02 02:22:00,
2013-11-01 22:23:00,54.2,51.4,29.71,North,8,0.0,239.7,90,0.12,,,0.09,VWS V14.01,2013-11-02 02:23:00,
2013-11-01 22:24:00,54.2,51.5,29.71,North,8,0.0,239.7,90,0.12,,,0.09,VWS V14.01,2013-11-02 02:24:00,
2013-11-01 22:26:00,54.3,51.6,29.71,North,8,0.0,239.7,90,0.12,,,0.09,VWS V14.01,2013-11-02 02:26:00,
2013-11-01 22:27:00,54.3,51.6,29.71,North,8,0.0,239.7,90,0.12,,,0.09,VWS V14.01,2013-11-02 02:27:00,
2013-11-01 22:28:00,54.4,51.7,29.71,North,8,0.0,239.7,91,0.12,,,0.09,VWS V14.01,2013-11-02 02:28:00,
2013-11-01 22:29:00,54.4,51.7,29.71,North,8,0.0,239.7,90,0.12,,,0.09,VWS V14.01,2013-11-02 02:29:00,
2013-11-01 22:30:00,54.3,51.6,29.71,North,8,0.0,239.7,90,0.12,,,0.09,VWS V14.01,2013-11-02 02:30:00,
2013-11-01 22:31:00,56.6,53.2,29.71,North,8,0.0,239.7,88,0.12,,,0.00,VWS V14.01,2013-11-02 02:31:00,
2013-11-01 22:32:00,54.4,51.7,29.71,North,8,0.0,239.7,90,0.12,,,0.09,VWS V14.01,2013-11-02 02:32:00,
2013-11-01 22:33:00,54.5,51.8,29.71,North,8,0.0,239.7,90,0.12,,,0.09,VWS V14.01,2013-11-02 02:33:00,
2013-11-01 22:34:00,54.5,51.7,29.71,North,8,0.0,239.7,90,0.12,,,0.09,VWS V14.01,2013-11-02 02:34:00,
2013-11-01 22:35:00,54.5,51.7,29.71,North,8,0.0,239.7,90,0.12,,,0.09,VWS V14.01,2013-11-02 02:35:00,
2013-11-01 22:36:00,54.6,51.8,29.71,North,8,0.0,239.7,90,0.12,,,0.09,VWS V14.01,2013-11-02 02:36:00,
2013-11-01 22:37:00,53.7,51.7,29.71,North,8,0.0,239.7,93,0.12,,,7.06,VWS V14.01,2013-11-02 02:37:00,
2013-11-01 22:38:00,54.6,51.7,29.71,North,8,0.0,239.7,90,0.12,,,0.09,VWS V14.01,2013-11-02 02:38:00,
2013-11-01 22:39:00,54.5,51.6,29.71,North,8,0.0,239.7,90,0.12,,,0.09,VWS V14.01,2013-11-02 02:39:00,
2013-11-01 22:40:00,54.7,51.7,29.71,North,8,0.0,239.7,90,0.12,,,0.09,VWS V14.01,2013-11-02 02:40:00,
2013-11-01 22:41:00,54.6,51.6,29.71,North,8,0.0,239.7,90,0.12,,,0.09,VWS V14.01,2013-11-02 02:41:00,
2013-11-01 22:42:00,54.7,51.8,29.71,North,8,0.0,239.7,90,0.12,,,0.09,VWS V14.01,2013-11-02 02:42:00,
2013-11-01 22:43:00,55.7,52.8,29.70,North,8,0.0,239.7,90,0.12,,,0.09,VWS V14.01,2013-11-02 02:43:00,
2013-11-01 22:44:00,54.7,51.7,29.71,North,8,0.0,239.7,90,0.12,,,0.09,VWS V14.01,2013-11-02 02:44:00,
2013-11-01 22:45:00,54.7,51.7,29.71,North,8,0.0,239.7,90,0.12,,,0.09,VWS V14.01,2013-11-02 02:45:00,
2013-11-01 22:46:00,54.6,51.6,29.71,North,8,0.0,239.7,90,0.12,,,0.09,VWS V14.01,2013-11-02 02:46:00,
2013-11-01 22:48:00,55.2,-4.8,29.70,North,8,0.0,239.7,8,0.51,,,0.09,VWS V14.01,2013-11-02 02:48:00,
2013-11-01 22:49:00,54.6,51.6,29.71,North,8,0.0,239.7,90,0.12,,,0.09,VWS V14.01,2013-11-02 02:49:00,
2013-11-01 22:50:00,54.6,51.6,29.71,North,8,0.0,239.7,90,0.12,,,0.09,VWS V14.01,2013-11-02 02:50:00,
2013-11-01 22:51:00,54.5,51.5,29.71,North,8,0.0,239.7,90,0.12,,,0.09,VWS V14.01,2013-11-02 02:51:00,
2013-11-01 22:52:00,54.6,51.6,29.71,North,8,0.0,239.7,90,0.12,,,0.09,VWS V14.01,2013-11-02 02:52:00,
2013-11-01 22:53:00,54.6,51.6,29.70,North,8,0.0,239.7,90,0.12,,,0.09,VWS V14.01,2013-11-02 02:53:00,
2013-11-01 22:54:00,54.5,51.5,29.71,North,8,0.0,239.7,90,0.12,,,0.09,VWS V14.01,2013-11-02 02:54:00,
2013-11-01 22:55:00,54.5,51.5,29.71,North,8,0.0,239.7,90,0.12,,,0.09,VWS V14.01,2013-11-02 02:55:00,
2013-11-01 22:56:00,54.5,51.5,29.71,North,8,0.0,239.7,89,0.12,,,0.09,VWS V14.01,2013-11-02 02:56:00,
2013-11-01 22:57:00,54.3,0.0,33.40,North,8,0.0,239.7,0,0.12,,,0.00,VWS V14.01,2013-11-02 02:57:00,
2013-11-01 22:58:00,54.4,51.3,29.71,North,8,0.0,239.7,89,0.12,,,0.09,VWS V14.01,2013-11-02 02:58:00,
2013-11-01 22:59:00,54.4,51.3,29.71,North,8,0.0,239.7,89,0.12,,,0.09,VWS V14.01,2013-11-02 02:59:00,
2013-11-01 23:00:00,54.4,51.3,29.70,North,8,0.0,239.7,89,0.12,,,0.09,VWS V14.01,2013-11-02 03:00:00,
2013-11-01 23:01:00,54.3,51.2,29.70,North,8,0.0,239.7,89,0.12,,,0.09,VWS V14.01,2013-11-02 03:01:00,
2013-11-01 23:02:00,54.3,51.2,29.70,North,8,0.0,239.7,89,0.12,,,0.09,VWS V14.01,2013-11-02 03:02:00,
2013-11-01 23:03:00,54.2,51.2,29.70,North,8,0.0,239.7,89,0.12,,,0.09,VWS V14.01,2013-11-02 03:03:00,
2013-11-01 23:04:00,53.8,51.7,29.71,North,8,0.0,239.7,92,0.12,,,0.00,VWS V14.01,2013-11-02 03:04:00,
2013-11-01 23:06:00,59.5,58.4,29.82,NNW,338,0.0,0.0,96,0.05,,,0.18,VWS V14.01,2013-11-02 03:06:00,
2013-11-01 23:07:00,59.4,58.3,29.82,NNW,338,0.0,0.0,96,0.00,,,0.18,VWS V14.01,2013-11-02 03:07:00,
2013-11-01 23:08:00,59.5,58.4,29.82,NNW,338,0.0,0.0,96,0.00,,,0.18,VWS V14.01,2013-11-02 03:08:00,
2013-11-01 23:09:00,59.5,58.4,29.82,NNW,338,0.0,0.0,96,0.00,,,0.18,VWS V14.01,2013-11-02 03:09:00,
2013-11-01 23:10:00,59.4,58.3,29.82,NNW,338,0.0,0.0,96,0.00,,,0.18,VWS V14.01,2013-11-02 03:10:00,
2013-11-01 23:11:00,59.4,58.3,29.81,NNW,338,0.0,0.0,96,0.00,,,0.18,VWS V14.01,2013-11-02 03:11:00,
2013-11-01 23:12:00,59.5,58.4,29.81,NNW,338,0.0,0.0,96,0.00,,,0.18,VWS V14.01,2013-11-02 03:12:00,
2013-11-01 23:13:00,59.5,58.4,29.81,NNW,338,0.0,0.0,96,0.00,,,0.18,VWS V14.01,2013-11-02 03:13:00,
2013-11-01 23:14:00,59.5,58.5,29.81,NNW,338,0.0,0.0,96,0.01,,,0.19,VWS V14.01,2013-11-02 03:14:00,
2013-11-01 23:15:00,59.4,58.3,29.81,NNW,338,0.0,0.0,96,0.01,,,0.19,VWS V14.01,2013-11-02 03:15:00,
2013-11-01 23:16:00,59.5,58.4,29.81,NNW,338,0.0,0.0,96,0.01,,,0.19,VWS V14.01,2013-11-02 03:16:00,
2013-11-01 23:17:00,59.5,58.4,29.81,NNW,338,0.0,0.0,96,0.01,,,0.19,VWS V14.01,2013-11-02 03:17:00,
2013-11-01 23:18:00,59.4,58.3,29.81,NNW,338,0.0,0.0,96,0.01,,,0.19,VWS V14.01,2013-11-02 03:18:00,
2013-11-01 23:19:00,59.4,58.3,29.81,NNW,338,0.0,0.0,96,0.01,,,0.19,VWS V14.01,2013-11-02 03:19:00,
2013-11-01 23:20:00,59.4,58.3,29.81,NNW,338,0.0,0.0,96,0.01,,,0.19,VWS V14.01,2013-11-02 03:20:00,
2013-11-01 23:21:00,59.5,58.4,29.80,NNW,338,0.0,0.0,96,0.01,,,0.19,VWS V14.01,2013-11-02 03:21:00,
2013-11-01 23:22:00,59.5,58.4,29.80,NNW,338,0.0,0.0,96,0.01,,,0.19,VWS V14.01,2013-11-02 03:22:00,
2013-11-01 23:23:00,59.5,58.4,29.80,NNW,338,0.0,0.0,96,0.01,,,0.19,VWS V14.01,2013-11-02 03:23:00,
2013-11-01 23:24:00,59.4,58.3,29.80,NNW,338,0.0,0.0,96,0.01,,,0.19,VWS V14.01,2013-11-02 03:24:00,
2013-11-01 23:25:00,59.5,58.4,29.80,NNW,338,0.0,0.0,96,0.01,,,0.19,VWS V14.01,2013-11-02 03:25:00,
2013-11-01 23:26:00,59.5,58.4,29.80,NNW,338,0.0,0.0,96,0.01,,,0.19,VWS V14.01,2013-11-02 03:26:00,
2013-11-01 23:27:00,59.5,58.4,29.80,NNW,338,0.0,0.0,96,0.02,,,0.20,VWS V14.01,2013-11-02 03:27:00,
2013-11-01 23:28:00,59.5,58.4,29.80,NNW,338,0.0,0.0,96,0.02,,,0.20,VWS V14.01,2013-11-02 03:28:00,
2013-11-01 23:29:00,59.5,58.4,29.80,NNW,338,0.0,0.0,96,0.02,,,0.20,VWS V14.01,2013-11-02 03:29:00,
2013-11-01 23:30:00,59.5,58.4,29.80,NNW,338,0.0,0.0,96,0.02,,,0.20,VWS V14.01,2013-11-02 03:30:00,
2013-11-01 23:31:00,59.5,58.4,29.80,NNW,338,0.0,0.0,96,0.02,,,0.20,VWS V14.01,2013-11-02 03:31:00,
2013-11-01 23:32:00,59.6,58.5,29.80,NNW,338,0.0,0.0,96,0.02,,,0.20,VWS V14.01,2013-11-02 03:32:00,
2013-11-01 23:33:00,59.5,58.4,29.80,NNW,338,0.0,0.0,96,0.02,,,0.20,VWS V14.01,2013-11-02 03:33:00,
2013-11-01 23:34:00,59.5,58.4,29.80,NNW,338,0.0,0.0,96,0.02,,,0.20,VWS V14.01,2013-11-02 03:34:00,
2013-11-01 23:35:00,59.6,58.5,29.80,NNW,338,0.0,0.0,96,0.02,,,0.20,VWS V14.01,2013-11-02 03:35:00,
2013-11-01 23:36:00,59.5,58.4,29.80,NNW,338,0.0,0.0,96,0.02,,,0.20,VWS V14.01,2013-11-02 03:36:00,
2013-11-01 23:37:00,59.5,58.4,29.80,NNW,338,0.0,0.0,96,0.02,,,0.20,VWS V14.01,2013-11-02 03:37:00,
2013-11-01 23:38:00,59.5,58.4,29.79,NNW,338,0.0,0.0,96,0.02,,,0.20,VWS V14.01,2013-11-02 03:38:00,
2013-11-01 23:39:00,59.4,58.3,29.79,NNW,338,0.0,0.0,96,0.02,,,0.20,VWS V14.01,2013-11-02 03:39:00,
2013-11-01 23:40:00,59.5,58.4,29.79,NNW,338,0.0,0.0,96,0.02,,,0.20,VWS V14.01,2013-11-02 03:40:00,
2013-11-01 23:41:00,59.5,58.4,29.79,NNW,338,0.0,0.0,96,0.02,,,0.20,VWS V14.01,2013-11-02 03:41:00,
2013-11-01 23:42:00,59.5,58.4,29.79,NNW,338,0.0,0.0,96,0.02,,,0.20,VWS V14.01,2013-11-02 03:42:00,
2013-11-01 23:43:00,59.5,58.4,29.79,NNW,338,0.0,0.0,96,0.02,,,0.20,VWS V14.01,2013-11-02 03:43:00,
2013-11-01 23:44:00,59.5,58.4,29.79,NNW,338,0.0,0.0,96,0.02,,,0.20,VWS V14.01,2013-11-02 03:44:00,
2013-11-01 23:45:00,59.5,58.4,29.79,NNW,338,0.0,0.0,96,0.02,,,0.20,VWS V14.01,2013-11-02 03:45:00,
2013-11-01 23:46:00,59.5,58.4,29.79,NNW,338,0.0,0.0,96,0.02,,,0.20,VWS V14.01,2013-11-02 03:46:00,
2013-11-01 23:47:00,59.5,58.4,29.79,NNW,338,0.0,0.0,96,0.02,,,0.20,VWS V14.01,2013-11-02 03:47:00,
2013-11-01 23:48:00,59.5,58.3,29.79,NNW,338,0.0,0.0,96,0.02,,,0.20,VWS V14.01,2013-11-02 03:48:00,
2013-11-01 23:49:00,59.5,58.3,29.79,NNW,338,0.0,0.0,96,0.02,,,0.20,VWS V14.01,2013-11-02 03:49:00,
2013-11-01 23:50:00,59.5,58.3,29.79,NNW,338,0.0,0.0,96,0.02,,,0.20,VWS V14.01,2013-11-02 03:50:00,
2013-11-01 23:51:00,59.5,58.4,29.79,NNW,338,0.0,0.0,96,0.02,,,0.20,VWS V14.01,2013-11-02 03:51:00,
2013-11-01 23:52:00,59.5,58.4,29.79,NNW,338,0.0,0.0,96,0.02,,,0.20,VWS V14.01,2013-11-02 03:52:00,
2013-11-01 23:53:00,59.5,58.4,29.79,NNW,338,0.0,0.0,96,0.03,,,0.21,VWS V14.01,2013-11-02 03:53:00,
2013-11-01 23:54:00,59.5,58.4,29.79,NNW,338,0.0,0.0,96,0.03,,,0.21,VWS V14.01,2013-11-02 03:54:00,
2013-11-01 23:55:00,59.5,58.4,29.79,NNW,338,0.0,0.0,96,0.03,,,0.21,VWS V14.01,2013-11-02 03:55:00,
2013-11-01 23:56:00,59.4,58.3,29.79,NNW,338,0.0,0.0,96,0.03,,,0.21,VWS V14.01,2013-11-02 03:56:00,
2013-11-01 23:57:00,59.5,58.4,29.79,NNW,338,0.0,0.0,96,0.03,,,0.21,VWS V14.01,2013-11-02 03:57:00,
2013-11-01 23:58:00,59.5,58.4,29.78,NNW,338,0.0,0.0,96,0.03,,,0.21,VWS V14.01,2013-11-02 03:58:00,
2013-11-01 23:59:00,59.5,58.4,29.78,NNW,338,0.0,0.0,96,0.03,,,0.21,VWS V14.01,2013-11-02 03:59:00,